Terminal Aerodrome Forecast
Issued by NWS

Home | Current Version | Previous Version | Text Only | Print | Product List | Glossary Off
Versions: 1 2 3 4 5 6 7 8 9 10 11 12 13 14

000
FTUS43 KBIS 210644 AAA
TAFMOT
TAF AMD
KMOT 210644Z 2107/2206 19018KT P6SM SKC
     FM211500 18011G19KT P6SM FEW070 SCT200
     FM211700 17015G26KT P6SM FEW060 SCT250
     FM220200 16014KT P6SM FEW070 SCT250=

USA.gov is the U.S. government's official web portal to all federal, state and local government web resources and services.